createdAt,value
2023-03-22T00:02:14.125Z,9.80
2023-03-22T00:04:43.078Z,9.70
2023-03-22T00:07:09.947Z,9.90
2023-03-22T00:09:37.192Z,9.70
2023-03-22T00:12:04.465Z,9.70
2023-03-22T00:14:31.241Z,9.70
2023-03-22T00:16:58.388Z,9.70
2023-03-22T00:19:26.343Z,9.80
2023-03-22T00:21:53.490Z,9.60
2023-03-22T00:24:21.167Z,9.60
2023-03-22T00:26:48.339Z,9.60
2023-03-22T00:29:16.013Z,9.60
2023-03-22T00:31:43.228Z,9.60
2023-03-22T00:34:11.263Z,9.50
2023-03-22T00:36:38.242Z,9.50
2023-03-22T00:39:04.981Z,9.50
2023-03-22T00:41:32.189Z,9.60
2023-03-22T00:43:59.314Z,9.40
2023-03-22T00:46:26.796Z,9.50
2023-03-22T00:48:54.090Z,9.50
2023-03-22T00:51:21.374Z,9.50
2023-03-22T00:53:52.277Z,9.50
2023-03-22T00:56:19.978Z,9.60
2023-03-22T00:58:46.736Z,9.70
2023-03-22T01:01:13.732Z,9.80
2023-03-22T01:03:42.417Z,9.70
2023-03-22T01:06:09.997Z,9.70
2023-03-22T01:08:39.525Z,9.60
2023-03-22T01:11:07.917Z,9.70
2023-03-22T01:13:37.785Z,9.70
2023-03-22T01:16:06.589Z,9.60
2023-03-22T01:18:35.009Z,9.60
2023-03-22T01:21:02.206Z,9.60
2023-03-22T01:23:29.333Z,9.70
2023-03-22T01:25:56.077Z,9.80
2023-03-22T01:28:25.792Z,9.80
2023-03-22T01:30:54.595Z,9.80
2023-03-22T01:33:22.553Z,9.90
2023-03-22T01:35:49.357Z,9.80
2023-03-22T01:38:16.279Z,9.70
2023-03-22T01:40:43.473Z,9.70
2023-03-22T01:43:17.736Z,9.90
2023-03-22T01:45:47.875Z,10.10
2023-03-22T01:48:46.098Z,10.00
2023-03-22T01:51:18.508Z,10.00
2023-03-22T01:54:31.557Z,9.80
2023-03-22T01:56:59.121Z,9.80
2023-03-22T01:59:27.204Z,9.70
2023-03-22T02:01:54.636Z,9.70
2023-03-22T02:04:24.734Z,9.80
2023-03-22T02:06:56.129Z,9.80
2023-03-22T02:09:23.347Z,9.90
2023-03-22T02:11:59.459Z,9.90
2023-03-22T02:14:42.339Z,9.90
2023-03-22T02:17:42.222Z,9.90
2023-03-22T02:20:15.849Z,9.90
2023-03-22T02:23:14.678Z,9.80
2023-03-22T02:25:59.980Z,9.90
2023-03-22T02:28:45.849Z,9.80
2023-03-22T02:31:39.597Z,9.90
2023-03-22T02:34:18.821Z,9.80
2023-03-22T02:36:58.259Z,9.80
2023-03-22T02:40:13.565Z,9.90
2023-03-22T02:42:43.523Z,9.80
2023-03-22T02:45:22.873Z,10.10
2023-03-22T02:47:59.043Z,9.80
2023-03-22T02:50:38.206Z,9.90
2023-03-22T02:53:34.196Z,10.00
2023-03-22T02:56:23.884Z,9.90
2023-03-22T02:58:54.036Z,9.80
2023-03-22T03:01:36.658Z,9.80
2023-03-22T03:04:09.414Z,9.80
2023-03-22T03:06:41.243Z,9.90
2023-03-22T03:09:14.344Z,9.80
2023-03-22T03:11:41.084Z,9.90
2023-03-22T03:14:08.239Z,9.90
2023-03-22T03:16:37.074Z,9.90
2023-03-22T03:19:33.610Z,9.90
2023-03-22T03:22:04.266Z,9.90
2023-03-22T03:24:46.320Z,10.00
2023-03-22T03:27:49.868Z,10.10
2023-03-22T03:30:49.996Z,10.20
2023-03-22T03:33:20.629Z,10.60
2023-03-22T03:35:53.710Z,11.00
2023-03-22T03:38:26.371Z,10.90
2023-03-22T03:41:01.862Z,10.90
2023-03-22T03:43:29.078Z,10.90
2023-03-22T03:45:56.418Z,11.00
2023-03-22T03:48:31.975Z,10.70
2023-03-22T03:51:01.290Z,10.50
2023-03-22T03:53:28.600Z,10.60
2023-03-22T03:55:55.532Z,10.80
2023-03-22T03:58:22.362Z,11.00
2023-03-22T04:00:50.419Z,11.00
2023-03-22T04:03:17.194Z,10.80
2023-03-22T04:05:44.387Z,11.00
2023-03-22T04:08:11.801Z,10.80
2023-03-22T04:10:39.124Z,11.00
2023-03-22T04:13:06.196Z,11.20
2023-03-22T04:15:34.910Z,11.10
2023-03-22T04:18:01.736Z,11.10
2023-03-22T04:20:29.893Z,11.00
2023-03-22T04:22:58.091Z,11.00
2023-03-22T04:25:30.708Z,11.00
2023-03-22T04:27:57.501Z,10.90
2023-03-22T04:30:25.005Z,10.80
2023-03-22T04:32:51.740Z,11.00
2023-03-22T04:35:18.973Z,10.80
2023-03-22T04:37:45.816Z,10.60
2023-03-22T04:40:17.206Z,10.70
2023-03-22T04:42:45.945Z,10.50
2023-03-22T04:45:14.576Z,10.50
2023-03-22T04:47:41.648Z,10.60
2023-03-22T04:50:09.188Z,10.60
2023-03-22T04:52:36.372Z,10.40
2023-03-22T04:55:03.594Z,10.20
2023-03-22T04:57:30.291Z,10.20
2023-03-22T04:59:57.014Z,10.00
2023-03-22T05:02:24.241Z,10.00
2023-03-22T05:04:51.038Z,10.00
2023-03-22T05:07:18.356Z,10.00
2023-03-22T05:09:45.480Z,10.10
2023-03-22T05:12:12.341Z,10.00
2023-03-22T05:14:39.142Z,10.30
2023-03-22T05:17:05.911Z,10.10
2023-03-22T05:19:33.516Z,10.30
2023-03-22T05:22:02.449Z,10.20
2023-03-22T05:24:30.601Z,10.50
2023-03-22T05:27:01.460Z,10.70
2023-03-22T05:29:28.745Z,10.70
2023-03-22T05:31:55.769Z,10.60
2023-03-22T05:34:23.098Z,10.50
2023-03-22T05:36:51.582Z,10.30
2023-03-22T05:39:19.713Z,10.30
2023-03-22T05:41:46.990Z,10.50
2023-03-22T05:44:13.755Z,10.80
2023-03-22T05:46:41.312Z,11.00
2023-03-22T05:49:08.384Z,10.90
2023-03-22T05:51:42.065Z,10.90
2023-03-22T05:54:10.001Z,10.90
2023-03-22T05:56:36.949Z,11.00
2023-03-22T05:59:04.746Z,11.20
2023-03-22T06:01:33.387Z,11.10
2023-03-22T06:04:01.030Z,11.10
2023-03-22T06:06:28.487Z,11.00
2023-03-22T06:09:04.265Z,11.00
2023-03-22T06:11:42.663Z,11.00
2023-03-22T06:14:11.350Z,10.80
2023-03-22T06:16:39.230Z,10.90
2023-03-22T06:19:06.492Z,11.00
2023-03-22T06:21:33.425Z,11.00
2023-03-22T06:24:00.485Z,11.10
2023-03-22T06:26:28.595Z,11.10
2023-03-22T06:28:55.332Z,11.40
2023-03-22T06:31:22.716Z,11.50
2023-03-22T06:33:49.582Z,11.60
2023-03-22T06:36:16.677Z,11.80
2023-03-22T06:38:46.093Z,12.20
2023-03-22T06:41:13.331Z,12.70
2023-03-22T06:43:40.813Z,14.20
2023-03-22T06:46:07.562Z,16.30
2023-03-22T06:48:34.865Z,17.60
2023-03-22T06:51:01.655Z,19.20
2023-03-22T06:53:28.579Z,20.50
2023-03-22T06:55:55.612Z,21.00
2023-03-22T06:58:23.261Z,20.60
2023-03-22T07:00:50.453Z,19.90
2023-03-22T07:03:17.186Z,19.20
2023-03-22T07:05:45.159Z,19.00
2023-03-22T07:08:12.529Z,18.70
2023-03-22T07:10:39.548Z,18.10
2023-03-22T07:13:06.917Z,18.10
2023-03-22T07:15:34.796Z,18.00
2023-03-22T07:18:02.465Z,18.00
2023-03-22T07:20:29.269Z,18.40
2023-03-22T07:22:56.316Z,18.50
2023-03-22T07:25:24.980Z,18.50
2023-03-22T07:27:51.678Z,18.40
2023-03-22T07:30:18.801Z,19.00
2023-03-22T07:32:46.104Z,19.60
2023-03-22T07:35:12.848Z,20.00
2023-03-22T07:37:39.574Z,20.40
2023-03-22T07:40:07.140Z,19.60
2023-03-22T07:42:34.722Z,18.80
2023-03-22T07:45:01.653Z,18.20
2023-03-22T07:47:40.397Z,18.20
2023-03-22T07:50:08.672Z,18.40
2023-03-22T07:52:35.645Z,18.60
2023-03-22T07:55:02.390Z,18.40
2023-03-22T07:57:29.124Z,18.50
2023-03-22T07:59:57.115Z,19.00
2023-03-22T08:02:24.518Z,19.30
2023-03-22T08:04:55.772Z,19.50
2023-03-22T08:07:25.502Z,19.60
2023-03-22T08:09:52.277Z,20.40
2023-03-22T08:12:19.628Z,21.70
2023-03-22T08:14:50.448Z,22.40
2023-03-22T08:17:19.009Z,22.80
2023-03-22T08:19:46.496Z,22.50
2023-03-22T08:22:13.763Z,22.70
2023-03-22T08:24:40.896Z,22.90
2023-03-22T08:27:07.646Z,22.20
2023-03-22T08:29:35.126Z,21.70
2023-03-22T08:32:03.672Z,21.80
2023-03-22T08:34:31.752Z,22.00
2023-03-22T08:36:58.748Z,22.00
2023-03-22T08:39:26.224Z,21.80
2023-03-22T08:41:53.017Z,22.60
2023-03-22T08:44:19.783Z,22.90
2023-03-22T08:46:46.925Z,23.30
2023-03-22T08:49:14.985Z,23.20
2023-03-22T08:51:42.118Z,23.40
2023-03-22T08:54:08.932Z,24.10
2023-03-22T08:56:38.453Z,23.70
2023-03-22T08:59:07.019Z,23.40
2023-03-22T09:01:34.958Z,22.90
2023-03-22T09:04:03.044Z,22.90
2023-03-22T09:06:30.383Z,22.90
2023-03-22T09:08:57.617Z,22.50
2023-03-22T09:11:24.488Z,22.40
2023-03-22T09:13:51.872Z,22.70
2023-03-22T09:16:19.495Z,23.00
2023-03-22T09:18:46.256Z,23.30
2023-03-22T09:21:13.110Z,23.00
2023-03-22T09:23:40.297Z,23.20
2023-03-22T09:26:09.356Z,22.50
2023-03-22T09:28:37.006Z,22.20
2023-03-22T09:31:11.007Z,20.90
2023-03-22T09:33:41.372Z,20.50
2023-03-22T09:36:09.479Z,20.90
2023-03-22T09:38:38.362Z,20.80
2023-03-22T09:41:28.036Z,20.30
2023-03-22T09:43:59.498Z,20.10
2023-03-22T09:46:42.833Z,20.00
2023-03-22T09:49:52.621Z,20.40
2023-03-22T09:52:20.836Z,20.20
2023-03-22T09:54:48.151Z,20.20
2023-03-22T09:57:26.803Z,20.20
2023-03-22T09:59:53.856Z,20.40
2023-03-22T10:02:39.618Z,20.20
2023-03-22T10:05:37.207Z,20.20
2023-03-22T10:08:16.082Z,20.30
2023-03-22T10:10:43.243Z,20.20
2023-03-22T10:13:39.635Z,20.30
2023-03-22T10:16:12.740Z,20.40
2023-03-22T10:18:47.299Z,20.40
2023-03-22T10:21:17.549Z,20.30
2023-03-22T10:24:18.228Z,19.90
2023-03-22T10:26:50.002Z,19.80
2023-03-22T10:29:19.520Z,19.90
2023-03-22T10:31:46.685Z,19.70
2023-03-22T10:34:21.873Z,19.70
2023-03-22T10:36:51.896Z,20.10
2023-03-22T10:39:30.164Z,20.20
2023-03-22T10:42:00.424Z,20.40
2023-03-22T10:44:30.402Z,20.30
2023-03-22T10:47:07.190Z,20.40
2023-03-22T10:49:39.900Z,20.40
2023-03-22T10:52:22.023Z,20.40
2023-03-22T10:54:49.207Z,20.20
2023-03-22T10:57:15.931Z,20.20
2023-03-22T10:59:48.705Z,20.10
2023-03-22T11:02:22.817Z,20.10
2023-03-22T11:04:52.702Z,20.00
2023-03-22T11:07:34.835Z,19.80
2023-03-22T11:10:13.386Z,19.80
2023-03-22T11:12:46.510Z,20.00
2023-03-22T11:15:40.690Z,20.00
2023-03-22T11:18:13.162Z,20.00
2023-03-22T11:20:42.903Z,20.20
2023-03-22T11:23:18.489Z,20.50
2023-03-22T11:25:48.482Z,20.60
2023-03-22T11:28:29.032Z,20.70
2023-03-22T11:31:11.067Z,20.50
2023-03-22T11:33:44.685Z,20.70
2023-03-22T11:36:19.060Z,20.70
2023-03-22T11:38:47.375Z,20.60
2023-03-22T11:41:25.346Z,20.60
2023-03-22T11:44:02.297Z,21.00
2023-03-22T11:46:30.789Z,20.80
2023-03-22T11:49:01.819Z,20.80
2023-03-22T11:51:43.849Z,20.70
2023-03-22T11:54:34.361Z,20.70
2023-03-22T11:57:05.759Z,20.50
2023-03-22T11:59:44.991Z,20.80
2023-03-22T12:02:27.166Z,20.90
2023-03-22T12:05:02.336Z,21.20
2023-03-22T12:07:31.880Z,21.50
2023-03-22T12:10:08.004Z,21.40
2023-03-22T12:12:44.396Z,21.40
2023-03-22T12:15:22.305Z,21.30
2023-03-22T12:18:14.803Z,21.10
2023-03-22T12:20:58.651Z,21.20
2023-03-22T12:23:30.220Z,21.10
2023-03-22T12:26:02.299Z,21.20
2023-03-22T12:28:40.607Z,21.40
2023-03-22T12:31:19.589Z,21.30
2023-03-22T12:33:58.162Z,21.30
2023-03-22T12:36:42.247Z,21.50
2023-03-22T12:39:19.860Z,21.40
2023-03-22T12:41:50.867Z,21.20
2023-03-22T12:44:26.020Z,20.80
2023-03-22T12:47:05.654Z,20.90
2023-03-22T12:49:41.369Z,20.70
2023-03-22T12:52:46.172Z,21.00
2023-03-22T12:55:25.178Z,21.00
2023-03-22T12:57:54.560Z,21.00
2023-03-22T13:00:44.882Z,21.00
2023-03-22T13:03:17.906Z,20.90
2023-03-22T13:05:47.072Z,20.90
2023-03-22T13:08:20.450Z,20.90
2023-03-22T13:11:21.890Z,20.60
2023-03-22T13:13:48.917Z,20.60
2023-03-22T13:16:22.417Z,20.60
2023-03-22T13:18:52.634Z,20.70
2023-03-22T13:21:26.913Z,20.70
2023-03-22T13:24:02.892Z,20.70
2023-03-22T13:26:50.111Z,20.70
2023-03-22T13:29:19.256Z,20.50
2023-03-22T13:31:51.944Z,20.70
2023-03-22T13:34:21.529Z,21.00
2023-03-22T13:36:56.464Z,21.20
2023-03-22T13:39:28.691Z,21.20
2023-03-22T13:42:17.844Z,21.40
2023-03-22T13:44:46.894Z,21.50
2023-03-22T13:47:46.894Z,21.30
2023-03-22T13:50:18.804Z,21.20
2023-03-22T13:53:23.570Z,21.20
2023-03-22T13:55:51.493Z,21.40
2023-03-22T13:58:38.074Z,21.40
2023-03-22T14:01:13.154Z,21.40
2023-03-22T14:03:46.037Z,21.40
2023-03-22T14:06:31.819Z,21.50
2023-03-22T14:09:06.208Z,21.30
2023-03-22T14:11:49.162Z,21.10
2023-03-22T14:14:24.313Z,20.80
2023-03-22T14:16:58.778Z,20.90
2023-03-22T14:19:29.982Z,21.10
